Terminal Aerodrome Forecast
Issued by NWS Shreveport, LA

Home | Current Version | Previous Version | Text Only | Print | Product List | Glossary On
Versions: 1 2 3 4 5 6 7 8 9 10 11 12 13 14 15 16
000
FTUS44 KSHV 021139
TAFLFK
TAF
KLFK 021139Z 0212/0312 18006KT P6SM BKN140 BKN250
     FM021500 20011KT P6SM SCT025 SCT140 BKN250
     FM021700 20012KT P6SM SCT040 SCT250
     FM030000 18006KT P6SM BKN250
     FM030900 16004KT 5SM BR BKN007=

USA.gov is the U.S. government's official web portal to all federal, state and local government web resources and services.